Time;durP1;ratioP1;P1;durP2;ratioP2;P2;SDS_P1;SDS_P2;PMS_P1;PMS_P2;Temp;Humidity;BMP_temperature;BMP_pressure;BME280_temperature;BME280_humidity;BME280_pressure;Samples;Min_cycle;Max_cycle;Signal;HPM_P1;HPM_P2
2022/04/16 00:00:56;;;;;;;5.57;2.10;;;11.20;99.90;;;;;;5069523;28;20426;-53
2022/04/16 00:03:23;;;;;;;6.20;2.50;;;11.20;99.90;;;;;;5068901;28;20420;-53
2022/04/16 00:05:53;;;;;;;6.75;2.20;;;11.10;99.90;;;;;;5051679;28;20993;-53
2022/04/16 00:08:20;;;;;;;6.10;2.47;;;11.10;99.90;;;;;;5068619;28;20460;-53
2022/04/16 00:10:46;;;;;;;5.83;2.00;;;11.00;99.90;;;;;;5071136;28;20420;-53
2022/04/16 00:13:12;;;;;;;5.57;2.15;;;11.00;99.90;;;;;;5073466;28;20372;-53
2022/04/16 00:15:38;;;;;;;5.63;2.10;;;11.00;99.90;;;;;;5072003;28;20391;-53
2022/04/16 00:18:04;;;;;;;5.30;1.90;;;10.80;99.90;;;;;;5072745;28;20424;-53
2022/04/16 00:20:31;;;;;;;6.40;2.30;;;10.70;99.90;;;;;;5074733;28;20445;-53
2022/04/16 00:22:57;;;;;;;6.53;2.05;;;10.60;99.90;;;;;;5093862;28;20381;-53
2022/04/16 00:25:23;;;;;;;5.78;2.00;;;10.60;99.90;;;;;;5093158;28;20381;-54
2022/04/16 00:27:49;;;;;;;5.57;2.27;;;10.50;99.90;;;;;;5093741;28;20377;-54
2022/04/16 00:30:17;;;;;;;5.97;2.30;;;10.40;99.90;;;;;;5093517;28;20401;-53
2022/04/16 00:32:45;;;;;;;6.93;2.30;;;10.40;99.90;;;;;;5093611;28;20406;-53
2022/04/16 00:35:13;;;;;;;5.88;2.30;;;10.40;99.90;;;;;;5093674;28;20397;-53
2022/04/16 00:37:39;;;;;;;6.13;2.25;;;10.50;99.90;;;;;;5093072;28;20443;-53
2022/04/16 00:40:06;;;;;;;7.90;2.40;;;10.50;99.90;;;;;;5093541;28;20374;-53
2022/04/16 00:42:44;;;;;;;5.57;2.30;;;10.50;99.90;;;;;;5092888;28;20433;-53
2022/04/16 00:45:10;;;;;;;6.40;2.60;;;10.50;99.90;;;;;;5093176;28;20928;-53
2022/04/16 00:47:36;;;;;;;5.43;2.30;;;10.50;99.90;;;;;;5092732;28;20408;-53
2022/04/16 00:50:10;;;;;;;6.97;2.50;;;10.50;99.90;;;;;;5093578;28;20460;-53
2022/04/16 00:52:38;;;;;;;6.05;2.20;;;10.40;99.90;;;;;;5092636;28;20393;-55
2022/04/16 00:55:06;;;;;;;6.03;2.30;;;10.40;99.90;;;;;;5075495;28;20446;-55
2022/04/16 00:57:32;;;;;;;5.93;2.42;;;10.40;99.90;;;;;;5092382;28;20390;-55
2022/04/16 01:00:00;;;;;;;6.80;2.50;;;10.40;99.90;;;;;;5092939;28;20851;-55
2022/04/16 01:02:26;;;;;;;6.30;2.40;;;10.30;99.90;;;;;;5092300;28;20397;-55
2022/04/16 01:04:52;;;;;;;8.55;2.85;;;10.30;99.90;;;;;;5093379;28;20843;-55
2022/04/16 01:07:25;;;;;;;6.60;2.40;;;10.20;99.90;;;;;;5092393;28;20385;-55
2022/04/16 01:09:51;;;;;;;5.80;2.40;;;10.20;99.90;;;;;;5093277;28;20406;-55
2022/04/16 01:12:17;;;;;;;6.47;2.70;;;10.20;99.90;;;;;;5092999;28;20390;-54
2022/04/16 01:14:45;;;;;;;6.20;2.60;;;10.30;99.90;;;;;;5093024;28;20867;-55
2022/04/16 01:17:14;;;;;;;7.10;2.38;;;10.20;99.90;;;;;;5092946;28;20389;-55
2022/04/16 01:19:41;;;;;;;6.60;2.60;;;10.10;99.90;;;;;;5092972;28;20390;-53
2022/04/16 01:22:12;;;;;;;6.45;2.90;;;10.10;99.90;;;;;;5092690;28;20413;-54
2022/04/16 01:24:43;;;;;;;6.10;2.58;;;10.00;99.90;;;;;;5092231;28;20370;-54
2022/04/16 01:27:09;;;;;;;6.78;2.97;;;10.00;99.90;;;;;;5092777;28;20378;-54
2022/04/16 01:29:35;;;;;;;7.50;2.70;;;9.90;99.90;;;;;;5092006;28;20394;-55
2022/04/16 01:32:01;;;;;;;7.00;3.10;;;9.80;99.90;;;;;;5092337;28;20386;-53
2022/04/16 01:34:27;;;;;;;7.10;3.03;;;9.80;1.00;;;;;;5091584;28;20370;-53
2022/04/16 01:36:52;;;;;;;6.97;3.20;;;9.70;1.00;;;;;;5092729;28;20382;-53
2022/04/16 01:39:18;;;;;;;6.60;2.95;;;9.60;1.00;;;;;;5091601;28;20389;-54
2022/04/16 01:41:44;;;;;;;6.13;2.72;;;9.60;1.00;;;;;;5092387;28;20448;-54
2022/04/16 01:44:09;;;;;;;6.25;2.60;;;9.50;1.00;;;;;;5092287;28;20409;-54
2022/04/16 01:46:36;;;;;;;7.30;2.90;;;9.50;1.00;;;;;;5091277;28;20436;-54
2022/04/16 01:49:02;;;;;;;6.50;2.70;;;9.40;1.00;;;;;;5092222;28;20413;-53
2022/04/16 01:51:28;;;;;;;6.07;2.70;;;9.40;1.00;;;;;;5091507;28;20394;-53
2022/04/16 01:53:53;;;;;;;5.93;2.60;;;9.30;1.00;;;;;;5091915;28;20403;-53
2022/04/16 01:56:19;;;;;;;6.77;3.33;;;9.20;1.80;;;;;;5091230;28;20420;-54
2022/04/16 01:58:46;;;;;;;6.93;2.80;;;9.20;99.90;;;;;;5092275;28;20374;-53
2022/04/16 02:01:13;;;;;;;6.30;3.00;;;9.20;99.90;;;;;;5092026;28;20382;-54
2022/04/16 02:03:39;;;;;;;6.45;3.00;;;9.10;99.90;;;;;;5091037;28;20384;-53
2022/04/16 02:06:05;;;;;;;7.63;3.00;;;9.10;99.90;;;;;;5091997;28;20382;-54
2022/04/16 02:08:30;;;;;;;6.70;2.97;;;9.00;99.90;;;;;;5091117;28;20847;-53
2022/04/16 02:10:56;;;;;;;6.30;2.83;;;9.00;99.90;;;;;;5091920;28;20388;-54
2022/04/16 02:13:22;;;;;;;6.30;2.97;;;9.00;99.90;;;;;;5091309;28;20439;-53
2022/04/16 02:15:47;;;;;;;7.33;2.90;;;8.90;1.00;;;;;;5091673;28;20845;-54
2022/04/16 02:18:13;;;;;;;6.70;3.30;;;8.90;1.00;;;;;;5091925;28;20701;-53
2022/04/16 02:20:41;;;;;;;6.60;2.80;;;8.90;1.00;;;;;;5090582;28;20413;-53
2022/04/16 02:23:08;;;;;;;8.20;3.13;;;8.90;1.00;;;;;;5091652;28;20374;-53
2022/04/16 02:25:34;;;;;;;6.72;3.08;;;8.80;1.00;;;;;;5091076;28;20382;-53
2022/04/16 02:27:59;;;;;;;7.25;3.20;;;8.60;1.00;;;;;;5091511;28;20386;-53
2022/04/16 02:30:35;;;;;;;7.00;3.20;;;8.60;53.40;;;;;;5098748;28;20506;-54
2022/04/16 02:33:06;;;;;;;7.10;3.10;;;8.60;1.00;;;;;;5113959;28;20390;-53
2022/04/16 02:35:34;;;;;;;7.20;2.80;;;8.50;1.00;;;;;;5113374;28;20381;-53
2022/04/16 02:38:03;;;;;;;6.63;2.70;;;8.50;1.00;;;;;;5113312;28;20449;-53
2022/04/16 02:40:29;;;;;;;7.15;3.10;;;8.50;99.90;;;;;;5091227;28;20921;-53
2022/04/16 02:42:55;;;;;;;6.27;2.70;;;8.40;99.90;;;;;;5091267;28;20382;-53
2022/04/16 02:48:05;;;;;;;6.85;2.63;;;8.30;99.90;;;;;;5091363;28;20376;-53
2022/04/16 02:50:31;;;;;;;6.70;2.80;;;8.20;1.00;;;;;;5089812;28;20426;-53
2022/04/16 02:52:58;;;;;;;8.30;2.87;;;8.10;99.90;;;;;;5090947;28;20389;-53
2022/04/16 02:55:24;;;;;;;7.03;3.05;;;8.10;99.90;;;;;;5090258;28;20878;-53
2022/04/16 02:57:50;;;;;;;6.50;2.80;;;8.10;99.90;;;;;;5072715;28;20879;-53
2022/04/16 03:00:19;;;;;;;7.65;3.03;;;8.00;99.90;;;;;;5090737;28;20385;-53
2022/04/16 03:02:46;;;;;;;8.30;2.80;;;8.00;1.00;;;;;;5090653;28;20374;-53
2022/04/16 03:05:11;;;;;;;6.97;3.10;;;7.90;1.00;;;;;;5090807;28;20374;-54
2022/04/16 03:07:38;;;;;;;6.78;2.85;;;7.80;1.00;;;;;;5090025;28;20457;-53
2022/04/16 03:10:05;;;;;;;8.70;3.40;;;7.80;1.00;;;;;;5090638;28;20417;-53
2022/04/16 03:12:53;;;;;;;7.20;2.90;;;7.80;99.90;;;;;;5089555;28;20383;-53
2022/04/16 03:18:07;;;;;;;7.20;3.20;;;7.70;1.00;;;;;;5090651;28;20438;-53
2022/04/16 03:20:32;;;;;;;7.78;3.30;;;7.70;99.90;;;;;;5089232;28;20778;-53
2022/04/16 03:22:59;;;;;;;7.10;3.20;;;7.70;5.80;;;;;;5090338;28;20374;-53
2022/04/16 03:25:27;;;;;;;7.80;3.65;;;7.70;99.90;;;;;;5089610;28;20370;-53
2022/04/16 03:27:52;;;;;;;7.10;3.60;;;7.70;99.90;;;;;;5090281;28;20374;-53
2022/04/16 03:30:18;;;;;;;7.00;3.50;;;7.80;1.00;;;;;;5089942;28;20414;-53
2022/04/16 03:32:47;;;;;;;8.13;3.53;;;7.80;99.90;;;;;;5089682;28;20398;-53
2022/04/16 03:35:13;;;;;;;7.40;3.30;;;7.90;66.60;;;;;;5090205;28;20388;-53
2022/04/16 03:37:38;;;;;;;7.20;3.50;;;8.00;99.90;;;;;;5089349;28;20382;-53
2022/04/16 03:40:05;;;;;;;7.47;3.63;;;8.10;1.00;;;;;;5090327;28;20386;-53
2022/04/16 03:42:33;;;;;;;7.72;3.40;;;8.20;99.90;;;;;;5088994;28;20386;-53
2022/04/16 03:45:00;;;;;;;7.60;3.67;;;8.10;1.00;;;;;;5089988;28;20413;-53
2022/04/16 03:47:27;;;;;;;7.50;3.50;;;8.10;99.90;;;;;;5089021;28;20861;-53
2022/04/16 03:49:53;;;;;;;7.40;3.50;;;8.10;1.00;;;;;;5089921;28;20422;-53
2022/04/16 03:52:19;;;;;;;7.20;3.30;;;8.10;1.00;;;;;;5089398;28;20386;-53
2022/04/16 04:00:13;;;;;;;7.30;3.40;;;8.00;1.00;;;;;;5090056;28;20463;-53
2022/04/16 04:02:39;;;;;;;6.40;3.00;;;8.00;1.00;;;;;;5089250;28;20371;-53
2022/04/16 04:05:06;;;;;;;7.70;3.65;;;7.90;99.90;;;;;;5089915;28;20405;-53
2022/04/16 04:07:32;;;;;;;7.30;3.40;;;7.90;99.90;;;;;;5089064;28;20439;-53
2022/04/16 04:09:58;;;;;;;7.72;3.30;;;8.10;97.90;;;;;;5089435;28;20500;-53
2022/04/16 04:12:24;;;;;;;6.80;3.50;;;8.10;1.00;;;;;;5088968;28;20831;-53
2022/04/16 04:14:50;;;;;;;6.25;2.63;;;8.20;1.00;;;;;;5071695;28;20397;-53
2022/04/16 04:17:16;;;;;;;6.57;3.30;;;8.30;40.50;;;;;;5089642;28;20461;-53
2022/04/16 04:19:44;;;;;;;6.70;3.50;;;8.30;1.00;;;;;;5085790;28;20768;-53
2022/04/16 04:22:11;;;;;;;7.38;3.40;;;8.40;99.90;;;;;;5089903;28;20437;-53
2022/04/16 04:24:38;;;;;;;9.70;3.30;;;8.60;27.30;;;;;;5088943;28;20389;-53
2022/04/16 04:27:06;;;;;;;7.93;2.90;;;8.70;6.30;;;;;;5089554;28;20428;-53
2022/04/16 04:29:32;;;;;;;7.20;3.20;;;8.60;1.00;;;;;;5089097;28;20476;-53
2022/04/16 04:31:58;;;;;;;8.32;3.53;;;8.60;99.90;;;;;;5079785;28;20400;-53
2022/04/16 04:34:25;;;;;;;7.50;3.20;;;8.60;99.90;;;;;;5087752;28;20374;-53
2022/04/16 04:36:51;;;;;;;7.50;3.40;;;8.60;99.90;;;;;;5089586;28;20366;-53
2022/04/16 04:39:16;;;;;;;7.60;3.40;;;8.70;99.90;;;;;;5089517;28;20778;-53
2022/04/16 04:41:43;;;;;;;7.72;3.50;;;8.70;99.90;;;;;;5089062;28;20412;-54
2022/04/16 04:44:14;;;;;;;7.50;3.70;;;8.80;97.80;;;;;;5089434;28;20862;-54
2022/04/16 04:46:40;;;;;;;7.57;3.40;;;8.80;1.00;;;;;;5088552;28;20422;-54
2022/04/16 04:49:11;;;;;;;8.05;3.90;;;8.80;1.00;;;;;;5089066;28;20801;-53
2022/04/16 04:51:40;;;;;;;7.07;3.40;;;8.90;1.00;;;;;;5088653;28;20386;-53
2022/04/16 04:54:12;;;;;;;7.63;3.50;;;8.90;1.00;;;;;;5100943;28;20446;-53
2022/04/16 04:56:42;;;;;;;7.95;3.80;;;8.90;1.00;;;;;;5112297;28;20394;-53
2022/04/16 04:59:08;;;;;;;7.80;4.30;;;8.90;1.00;;;;;;5091853;28;20913;-54
2022/04/16 05:01:40;;;;;;;8.10;4.10;;;9.00;1.00;;;;;;5101213;28;20447;-53
2022/04/16 05:04:10;;;;;;;8.10;3.83;;;9.00;1.00;;;;;;5116288;28;20377;-53
2022/04/16 05:06:47;;;;;;;7.30;3.55;;;9.00;1.00;;;;;;5115414;28;20386;-53
2022/04/16 05:09:17;;;;;;;7.80;3.80;;;8.90;1.00;;;;;;5115323;28;20421;-54
2022/04/16 05:11:48;;;;;;;9.30;3.60;;;8.90;86.20;;;;;;5113713;28;20462;-53
2022/04/16 05:14:15;;;;;;;8.48;3.72;;;8.90;99.90;;;;;;5099071;28;20784;-53
2022/04/16 05:16:41;;;;;;;6.70;3.10;;;8.90;99.90;;;;;;5092051;28;20382;-53
2022/04/16 05:19:07;;;;;;;6.60;3.25;;;8.90;1.00;;;;;;5092738;28;20413;-53
2022/04/16 05:21:33;;;;;;;8.88;3.60;;;8.90;1.00;;;;;;5078078;28;20438;-54
2022/04/16 05:23:59;;;;;;;7.93;3.50;;;9.00;99.90;;;;;;5062214;28;20439;-54
2022/04/16 05:26:24;;;;;;;8.25;3.80;;;9.20;99.90;;;;;;5057831;28;20380;-54
2022/04/16 05:28:50;;;;;;;7.93;3.60;;;9.30;1.00;;;;;;5052013;28;20416;-54
2022/04/16 05:31:19;;;;;;;9.00;3.38;;;9.40;1.00;;;;;;5063472;28;20939;-54
2022/04/16 05:36:29;;;;;;;8.35;3.83;;;9.50;99.90;;;;;;5071763;28;20387;-54
2022/04/16 05:38:55;;;;;;;7.97;3.70;;;9.60;99.90;;;;;;5072607;28;20392;-55
2022/04/16 05:41:20;;;;;;;7.85;3.67;;;9.60;99.90;;;;;;5044048;28;20421;-54
2022/04/16 05:43:48;;;;;;;7.80;3.93;;;9.50;99.90;;;;;;5053333;28;20391;-54
2022/04/16 05:46:13;;;;;;;8.75;4.05;;;9.40;99.90;;;;;;5067477;28;20405;-54
2022/04/16 05:48:39;;;;;;;8.00;4.20;;;9.50;99.90;;;;;;5061766;28;21004;-54
2022/04/16 05:51:05;;;;;;;8.10;3.90;;;9.70;99.90;;;;;;5058268;28;20724;-55
2022/04/16 05:53:31;;;;;;;8.60;3.67;;;9.70;99.90;;;;;;5067025;28;20403;-55
2022/04/16 05:55:57;;;;;;;6.95;3.30;;;9.80;99.90;;;;;;5054659;28;20396;-55
2022/04/16 05:58:23;;;;;;;9.27;3.85;;;9.80;99.90;;;;;;5069262;28;20896;-55
2022/04/16 06:00:51;;;;;;;8.85;3.80;;;9.60;99.90;;;;;;5061585;28;20397;-55
2022/04/16 06:03:16;;;;;;;10.02;4.28;;;9.60;99.90;;;;;;5049191;28;20505;-54
2022/04/16 06:05:42;;;;;;;8.38;4.20;;;9.70;99.90;;;;;;5061658;28;20404;-55
2022/04/16 06:08:08;;;;;;;8.43;4.00;;;9.80;99.90;;;;;;5035933;28;20395;-54
2022/04/16 06:10:36;;;;;;;8.20;4.20;;;9.80;99.90;;;;;;5065243;28;20492;-55
2022/04/16 06:13:02;;;;;;;7.93;3.95;;;9.90;99.90;;;;;;5064760;28;20422;-55
2022/04/16 06:15:27;;;;;;;9.68;4.20;;;9.90;99.90;;;;;;5061905;28;20401;-55
2022/04/16 06:17:53;;;;;;;8.55;4.00;;;10.10;99.90;;;;;;5036686;28;20410;-55
2022/04/16 06:20:19;;;;;;;9.20;4.43;;;10.20;99.90;;;;;;5061088;28;20406;-54
2022/04/16 06:22:44;;;;;;;7.93;4.20;;;10.10;99.90;;;;;;5078961;28;20766;-55
2022/04/16 06:25:10;;;;;;;10.55;4.20;;;10.20;1.00;;;;;;5079537;28;20399;-54
2022/04/16 06:27:38;;;;;;;8.68;4.22;;;10.20;1.00;;;;;;5085500;28;20446;-54
2022/04/16 06:30:11;;;;;;;10.10;4.20;;;10.10;1.00;;;;;;5083106;28;20875;-54
2022/04/16 06:32:39;;;;;;;10.60;4.25;;;10.30;1.00;;;;;;5078873;28;21067;-55
2022/04/16 06:35:05;;;;;;;8.40;4.05;;;10.30;1.00;;;;;;5075657;28;20392;-54
2022/04/16 06:37:32;;;;;;;9.25;4.50;;;10.10;48.20;;;;;;5073385;28;20404;-55
2022/04/16 06:39:58;;;;;;;8.67;4.23;;;10.20;99.90;;;;;;5080651;28;20389;-55
2022/04/16 06:42:24;;;;;;;9.95;4.25;;;10.40;99.90;;;;;;5074887;28;20410;-54
2022/04/16 06:44:50;;;;;;;9.10;4.40;;;10.50;1.00;;;;;;5087293;28;20402;-54
2022/04/16 06:47:15;;;;;;;8.03;3.90;;;10.60;1.00;;;;;;5090503;28;20461;-54
2022/04/16 06:49:41;;;;;;;8.35;3.95;;;10.60;1.00;;;;;;5075533;28;20417;-54
2022/04/16 06:52:07;;;;;;;7.78;4.00;;;10.50;1.00;;;;;;5085908;28;20499;-54
2022/04/16 06:54:32;;;;;;;8.77;4.10;;;10.60;1.00;;;;;;5082899;28;20405;-54
2022/04/16 06:56:58;;;;;;;8.90;4.20;;;10.80;1.00;;;;;;5086723;28;20730;-54
2022/04/16 06:59:24;;;;;;;9.30;4.10;;;10.70;1.00;;;;;;5078062;28;20801;-54
2022/04/16 07:01:49;;;;;;;8.60;4.40;;;10.60;1.00;;;;;;5079096;28;20457;-54
2022/04/16 07:04:15;;;;;;;11.10;4.57;;;10.40;9.40;;;;;;5076990;28;20399;-54
2022/04/16 07:06:42;;;;;;;9.45;4.50;;;10.60;20.40;;;;;;5075693;28;20392;-54
2022/04/16 07:09:10;;;;;;;9.45;4.45;;;10.70;1.00;;;;;;5083561;28;20492;-54
2022/04/16 07:11:36;;;;;;;8.63;3.88;;;10.80;1.00;;;;;;5076441;28;20492;-54
2022/04/16 07:14:01;;;;;;;8.70;4.25;;;10.90;1.00;;;;;;5063214;28;20498;-54
2022/04/16 07:16:27;;;;;;;10.40;4.50;;;11.00;1.00;;;;;;5079993;28;20409;-57
2022/04/16 07:18:53;;;;;;;8.27;4.30;;;10.80;1.00;;;;;;5082469;28;20427;-55
2022/04/16 07:21:18;;;;;;;8.30;4.20;;;10.80;1.00;;;;;;5087651;28;20405;-54
2022/04/16 07:23:44;;;;;;;8.38;4.35;;;10.90;1.00;;;;;;5085041;28;20467;-54
2022/04/16 07:26:10;;;;;;;8.60;4.70;;;11.10;1.00;;;;;;5086175;28;20451;-55
2022/04/16 07:28:35;;;;;;;8.40;4.25;;;11.10;1.00;;;;;;5081718;28;20398;-54
2022/04/16 07:31:01;;;;;;;11.43;4.60;;;11.30;1.00;;;;;;5080310;28;21071;-54
2022/04/16 07:33:30;;;;;;;12.13;4.90;;;11.40;1.00;;;;;;5071911;28;20734;-52
2022/04/16 07:35:57;;;;;;;10.13;4.65;;;11.60;99.90;;;;;;5092410;28;20397;-53
2022/04/16 07:38:23;;;;;;;9.70;4.97;;;11.70;99.90;;;;;;5087820;28;20410;-53
2022/04/16 07:40:49;;;;;;;8.33;4.03;;;11.70;99.90;;;;;;5072850;28;20394;-53
2022/04/16 07:43:15;;;;;;;9.65;5.10;;;11.50;99.90;;;;;;5087921;28;20392;-54
2022/04/16 07:45:41;;;;;;;10.30;5.18;;;11.40;99.90;;;;;;5080027;28;20403;-53
2022/04/16 07:48:08;;;;;;;10.93;5.20;;;11.20;1.00;;;;;;5072639;28;20453;-54
2022/04/16 07:50:33;;;;;;;10.77;5.83;;;11.30;1.00;;;;;;5078785;28;20428;-54
2022/04/16 07:52:59;;;;;;;9.25;4.82;;;11.50;1.00;;;;;;5082241;28;20433;-54
2022/04/16 07:55:28;;;;;;;8.95;4.50;;;11.70;1.00;;;;;;5064399;28;20403;-53
2022/04/16 07:57:54;;;;;;;9.82;4.88;;;12.00;99.90;;;;;;5076401;28;20890;-53
2022/04/16 08:00:20;;;;;;;10.10;5.13;;;12.10;99.90;;;;;;5089147;28;20469;-54
2022/04/16 08:02:46;;;;;;;15.50;5.03;;;12.20;99.90;;;;;;5092034;28;20435;-53
2022/04/16 08:05:12;;;;;;;8.57;4.50;;;12.40;99.90;;;;;;5091426;28;20404;-54
2022/04/16 08:07:37;;;;;;;10.35;5.45;;;12.30;1.00;;;;;;5087031;28;20481;-53
2022/04/16 08:10:04;;;;;;;11.70;5.60;;;12.40;99.90;;;;;;5082491;28;20502;-54
2022/04/16 08:12:30;;;;;;;11.07;5.43;;;12.70;1.00;;;;;;5084582;28;20417;-53
2022/04/16 08:14:55;;;;;;;11.43;5.25;;;12.80;99.90;;;;;;5084182;28;20394;-54
2022/04/16 08:17:21;;;;;;;9.52;5.18;;;13.10;1.00;;;;;;5090049;28;20406;-54
2022/04/16 08:19:47;;;;;;;10.97;5.40;;;13.20;1.00;;;;;;5089746;28;20422;-54
2022/04/16 08:22:18;;;;;;;15.50;8.27;;;12.60;1.00;;;;;;5084655;28;20708;-54
2022/04/16 08:25:43;;;;;;;13.55;7.35;;;12.40;1.00;;;;;;5089651;28;20406;-54
2022/04/16 08:27:33;;;;;;;20.23;14.77;;;12.40;1.00;;;;;;5091289;28;20400;-54
2022/04/16 08:29:59;;;;;;;13.93;9.02;;;12.20;1.00;;;;;;5095435;28;20451;-54
2022/04/16 08:32:25;;;;;;;12.48;7.25;;;12.20;1.00;;;;;;5091938;28;20467;-53
2022/04/16 08:34:51;;;;;;;12.00;5.83;;;12.00;1.00;;;;;;5093986;28;20887;-53
2022/04/16 08:37:17;;;;;;;11.45;5.72;;;12.00;1.00;;;;;;5095432;28;20398;-54
2022/04/16 08:39:42;;;;;;;12.23;6.80;;;11.90;1.00;;;;;;5093878;28;20457;-53
2022/04/16 08:42:08;;;;;;;11.03;5.33;;;12.00;1.00;;;;;;5093978;28;20890;-53
2022/04/16 08:44:38;;;;;;;10.55;5.60;;;11.70;1.00;;;;;;5097155;28;20476;-54
2022/04/16 08:47:06;;;;;;;10.98;5.80;;;11.80;1.00;;;;;;5092126;28;20389;-53
2022/04/16 08:49:33;;;;;;;13.50;5.95;;;12.00;1.00;;;;;;5089713;28;20418;-54
2022/04/16 08:51:59;;;;;;;11.35;5.68;;;12.60;1.00;;;;;;5092466;28;20394;-53
2022/04/16 08:54:26;;;;;;;12.98;5.68;;;12.80;1.00;;;;;;5089293;28;20477;-53
2022/04/16 08:56:51;;;;;;;13.70;5.90;;;12.50;1.00;;;;;;5088735;28;20393;-53
2022/04/16 08:59:17;;;;;;;11.57;6.00;;;12.90;1.00;;;;;;5094671;28;20421;-54
2022/04/16 09:01:43;;;;;;;12.90;5.80;;;12.90;1.00;;;;;;5089799;28;20390;-53
2022/04/16 09:04:19;;;;;;;10.80;5.40;;;12.90;1.00;;;;;;5084904;28;20474;-54
2022/04/16 09:06:59;;;;;;;10.23;5.28;;;12.80;10.60;;;;;;5095976;28;20378;-53
2022/04/16 09:09:25;;;;;;;10.57;5.70;;;12.60;16.40;;;;;;5095175;28;20418;-53
2022/04/16 09:11:52;;;;;;;10.90;5.63;;;12.60;49.40;;;;;;5087407;28;20407;-51
2022/04/16 09:14:18;;;;;;;11.25;5.90;;;12.70;80.90;;;;;;5088399;28;20402;-54
2022/04/16 09:16:45;;;;;;;12.63;6.60;;;12.90;77.80;;;;;;5079620;28;20405;-51
2022/04/16 09:19:21;;;;;;;12.15;6.82;;;12.70;90.70;;;;;;5082262;28;20457;-53
2022/04/16 09:21:47;;;;;;;14.20;7.40;;;12.80;91.50;;;;;;5070524;28;20417;-53
2022/04/16 09:24:13;;;;;;;13.38;7.22;;;13.30;96.80;;;;;;5041733;28;20866;-54
2022/04/16 09:26:40;;;;;;;13.57;7.50;;;13.80;92.40;;;;;;5066989;28;20384;-53
2022/04/16 09:29:14;;;;;;;12.77;6.90;;;14.20;99.90;;;;;;5065908;28;20439;-54
2022/04/16 09:31:43;;;;;;;12.93;6.93;;;14.40;99.90;;;;;;5058475;28;20399;-54
2022/04/16 09:34:29;;;;;;;12.27;6.75;;;14.00;99.90;;;;;;5058347;28;20726;-54
2022/04/16 09:36:54;;;;;;;11.70;6.60;;;14.20;99.90;;;;;;5060016;28;20425;-54
2022/04/16 09:39:25;;;;;;;11.95;6.70;;;14.10;99.90;;;;;;5061144;28;20440;-54
2022/04/16 09:41:54;;;;;;;13.63;6.83;;;14.00;99.90;;;;;;5056158;28;20438;-54
2022/04/16 09:44:20;;;;;;;12.33;6.80;;;13.90;99.90;;;;;;5063913;28;20516;-54
2022/04/16 09:46:47;;;;;;;11.80;6.50;;;13.50;99.90;;;;;;5057616;28;21037;-54
2022/04/16 09:49:14;;;;;;;13.15;6.78;;;13.40;99.90;;;;;;5063016;28;20399;-53
2022/04/16 09:51:46;;;;;;;13.48;7.15;;;13.50;99.90;;;;;;5067097;28;20431;-54
2022/04/16 09:54:12;;;;;;;12.82;6.88;;;13.50;99.90;;;;;;5064615;28;20439;-54
2022/04/16 09:56:45;;;;;;;12.90;6.10;;;13.90;99.90;;;;;;5065110;28;20404;-54
2022/04/16 09:59:12;;;;;;;13.52;7.03;;;13.70;99.90;;;;;;5067633;28;20479;-54
2022/04/16 10:01:49;;;;;;;11.93;6.60;;;13.90;99.90;;;;;;5062926;28;20395;-54
2022/04/16 10:04:19;;;;;;;12.90;7.10;;;13.90;99.90;;;;;;5063145;28;20495;-55
2022/04/16 10:06:48;;;;;;;14.23;6.93;;;14.10;99.90;;;;;;5067442;28;20912;-54
2022/04/16 10:09:17;;;;;;;14.57;6.80;;;14.30;99.90;;;;;;5052400;28;20471;-54
2022/04/16 10:14:54;;;;;;;12.88;6.45;;;14.30;99.90;;;;;;5058660;28;20851;-54
2022/04/16 10:17:23;;;;;;;12.27;7.00;;;14.30;99.90;;;;;;5054281;28;20566;-54
2022/04/16 10:19:48;;;;;;;12.98;6.57;;;14.40;99.90;;;;;;5054094;28;20450;-54
2022/04/16 10:22:25;;;;;;;12.82;6.18;;;14.60;99.90;;;;;;5057458;28;20440;-54
2022/04/16 10:24:56;;;;;;;10.50;5.57;;;14.80;99.70;;;;;;5052737;28;20412;-54
2022/04/16 10:27:23;;;;;;;11.05;5.63;;;14.80;99.70;;;;;;5051482;28;20417;-54
2022/04/16 10:29:49;;;;;;;12.13;5.97;;;14.60;99.00;;;;;;5055237;28;20417;-54
2022/04/16 10:32:16;;;;;;;12.27;6.60;;;14.30;99.10;;;;;;5070113;28;20386;-54
2022/04/16 10:34:42;;;;;;;11.67;6.00;;;14.00;99.70;;;;;;5057862;28;20408;-54
2022/04/16 10:37:20;;;;;;;10.60;5.90;;;13.90;99.90;;;;;;5050273;28;20401;-54
2022/04/16 10:39:47;;;;;;;11.47;6.30;;;14.20;99.80;;;;;;5056789;28;20419;-54
2022/04/16 10:42:13;;;;;;;10.38;5.00;;;14.40;99.10;;;;;;5065061;28;20783;-54
2022/04/16 10:44:49;;;;;;;9.67;4.87;;;14.30;97.40;;;;;;5051736;28;20401;-54
2022/04/16 10:47:17;;;;;;;9.80;4.50;;;14.60;97.10;;;;;;5057638;28;20450;-54
2022/04/16 10:49:43;;;;;;;9.07;5.00;;;14.70;96.60;;;;;;5061837;28;20420;-54
2022/04/16 10:52:22;;;;;;;9.57;4.70;;;14.90;95.70;;;;;;5055673;28;20410;-54
2022/04/16 10:54:48;;;;;;;8.27;3.50;;;15.10;95.40;;;;;;5048744;28;20401;-54
2022/04/16 10:57:21;;;;;;;8.57;3.78;;;14.70;94.70;;;;;;5054177;28;20384;-53
2022/04/16 10:59:47;;;;;;;8.90;4.18;;;14.10;94.40;;;;;;5056233;28;20420;-53
2022/04/16 11:02:25;;;;;;;9.50;4.30;;;14.20;95.00;;;;;;5056768;28;20463;-54
2022/04/16 11:05:02;;;;;;;9.20;4.75;;;14.10;96.00;;;;;;5069749;28;20470;-53
2022/04/16 11:07:35;;;;;;;11.68;5.70;;;14.20;96.70;;;;;;5058219;28;20520;-53
2022/04/16 11:10:02;;;;;;;9.52;4.43;;;14.20;97.00;;;;;;5056921;28;20880;-54
2022/04/16 11:12:29;;;;;;;9.55;4.65;;;14.50;95.10;;;;;;5064004;28;20447;-54
2022/04/16 11:14:55;;;;;;;8.60;3.90;;;14.80;95.20;;;;;;5051577;28;20397;-54
2022/04/16 11:17:21;;;;;;;7.13;3.33;;;15.40;93.70;;;;;;5062931;28;20414;-56
2022/04/16 11:20:00;;;;;;;7.18;3.20;;;15.90;90.50;;;;;;5053638;28;20429;-54
2022/04/16 11:22:26;;;;;;;8.10;3.65;;;16.00;90.10;;;;;;5079027;28;20401;-54
2022/04/16 11:24:52;;;;;;;9.33;3.87;;;15.50;86.80;;;;;;5086594;28;20812;-54
2022/04/16 11:36:05;;;;;;;8.00;3.50;;;17.00;84.70;;;;;;5088857;28;20378;-54
2022/04/16 11:38:33;;;;;;;8.20;3.20;;;16.50;81.40;;;;;;5074701;28;20443;-54
2022/04/16 11:41:00;;;;;;;6.97;3.10;;;16.30;85.80;;;;;;5074839;28;20395;-54
2022/04/16 11:43:29;;;;;;;8.75;4.10;;;16.60;86.60;;;;;;5074098;28;20407;-54
2022/04/16 11:45:57;;;;;;;8.25;3.40;;;16.40;86.60;;;;;;5075649;28;20395;-54
2022/04/16 11:48:23;;;;;;;7.97;3.45;;;16.40;86.50;;;;;;5087297;28;20386;-54
2022/04/16 11:50:50;;;;;;;7.63;3.35;;;16.20;81.20;;;;;;5068355;28;20454;-55
2022/04/16 11:53:15;;;;;;;7.03;3.00;;;16.00;82.00;;;;;;5076684;28;20459;-55
2022/04/16 11:55:48;;;;;;;8.03;3.57;;;16.30;79.50;;;;;;5068520;28;20396;-55
2022/04/16 11:58:15;;;;;;;7.90;3.13;;;16.50;81.90;;;;;;5072480;28;20409;-55
2022/04/16 12:00:54;;;;;;;7.82;3.67;;;17.20;79.70;;;;;;5073410;28;20874;-55
2022/04/16 12:03:20;;;;;;;7.30;3.10;;;17.10;75.90;;;;;;5069584;28;20410;-54
2022/04/16 12:05:50;;;;;;;10.33;3.77;;;17.10;78.10;;;;;;5083410;28;20486;-55
2022/04/16 12:08:20;;;;;;;8.27;3.90;;;17.40;80.10;;;;;;5068648;28;20563;-54
2022/04/16 12:10:46;;;;;;;7.80;3.80;;;17.20;78.10;;;;;;5068160;28;20916;-55
2022/04/16 12:13:14;;;;;;;8.80;4.03;;;16.80;78.80;;;;;;5079083;28;20403;-55
2022/04/16 12:15:44;;;;;;;7.85;4.00;;;16.20;79.70;;;;;;5065275;28;20430;-54
2022/04/16 12:18:22;;;;;;;9.07;4.22;;;16.00;81.10;;;;;;5075682;28;20449;-54
2022/04/16 12:20:48;;;;;;;7.63;3.40;;;16.40;78.60;;;;;;5067440;28;21016;-55
2022/04/16 12:23:21;;;;;;;8.02;3.72;;;16.30;78.50;;;;;;5068583;28;20453;-55
2022/04/16 12:25:48;;;;;;;6.30;3.00;;;16.40;81.80;;;;;;5072875;28;20476;-55
2022/04/16 12:28:14;;;;;;;7.90;3.70;;;16.80;79.70;;;;;;5074350;28;20395;-54
2022/04/16 12:30:48;;;;;;;7.82;3.38;;;16.60;78.00;;;;;;5074088;28;20414;-55
2022/04/16 12:33:14;;;;;;;8.52;3.20;;;16.80;76.60;;;;;;5068737;28;20399;-55
2022/04/16 12:35:44;;;;;;;8.20;3.80;;;17.20;75.50;;;;;;5075307;28;20415;-54
2022/04/16 12:38:15;;;;;;;7.70;3.73;;;17.00;74.60;;;;;;5086943;28;20381;-54
2022/04/16 12:40:41;;;;;;;7.90;3.50;;;17.00;74.60;;;;;;5088309;28;20401;-55
2022/04/16 12:43:07;;;;;;;8.40;3.60;;;17.20;75.50;;;;;;5073877;28;20401;-55
2022/04/16 12:45:34;;;;;;;8.15;3.60;;;17.50;72.90;;;;;;5069183;28;20391;-54
2022/04/16 12:48:00;;;;;;;11.90;4.90;;;17.00;72.50;;;;;;5081509;28;21049;-55
2022/04/16 12:50:27;;;;;;;12.98;4.78;;;16.40;72.80;;;;;;5073188;28;20431;-55
2022/04/16 12:52:53;;;;;;;9.50;4.50;;;16.00;73.90;;;;;;5067889;28;20398;-54
2022/04/16 12:55:20;;;;;;;9.15;4.20;;;15.70;74.40;;;;;;5076161;28;20392;-56
2022/04/16 12:57:45;;;;;;;8.38;4.60;;;15.70;74.90;;;;;;5067908;28;20453;-54
2022/04/16 13:00:13;;;;;;;8.60;3.63;;;15.90;75.90;;;;;;5075371;28;20396;-54
2022/04/16 13:02:44;;;;;;;8.93;4.13;;;16.30;75.30;;;;;;5067679;28;20406;-55
2022/04/16 13:05:11;;;;;;;8.90;3.83;;;16.40;73.80;;;;;;5076117;28;20453;-54
2022/04/16 13:07:39;;;;;;;12.05;3.70;;;16.50;72.90;;;;;;5075055;28;20399;-54
2022/04/16 13:10:06;;;;;;;10.53;4.20;;;16.80;72.20;;;;;;5075721;28;20514;-54
2022/04/16 13:12:33;;;;;;;8.45;4.20;;;16.60;70.80;;;;;;5075177;28;20420;-54
2022/04/16 13:14:59;;;;;;;9.30;3.85;;;16.40;69.70;;;;;;5085523;28;20464;-54
2022/04/16 13:17:25;;;;;;;9.70;3.92;;;16.20;68.80;;;;;;5078682;28;20498;-54